createdAt,value
2023-01-17T00:02:18.426Z,14.50
2023-01-17T00:05:04.080Z,13.60
2023-01-17T00:07:49.939Z,13.03
2023-01-17T00:10:23.065Z,12.20
2023-01-17T00:12:55.655Z,12.40
2023-01-17T00:15:25.843Z,12.70
2023-01-17T00:17:53.718Z,12.90
2023-01-17T00:20:42.062Z,12.90
2023-01-17T00:23:36.059Z,12.25
2023-01-17T00:26:04.589Z,12.48
2023-01-17T00:28:39.364Z,12.43
2023-01-17T00:31:08.555Z,12.35
2023-01-17T00:33:35.428Z,12.40
2023-01-17T00:36:03.112Z,12.90
2023-01-17T00:38:32.321Z,12.68
2023-01-17T00:41:05.357Z,12.40
2023-01-17T00:43:51.484Z,12.45
2023-01-17T00:46:37.274Z,12.45
2023-01-17T00:49:22.906Z,12.80
2023-01-17T00:52:08.368Z,12.45
2023-01-17T00:54:53.961Z,11.90
2023-01-17T00:57:39.598Z,12.40
2023-01-17T01:00:25.519Z,12.65
2023-01-17T01:03:11.124Z,12.60
2023-01-17T01:05:56.740Z,12.00
2023-01-17T01:08:44.590Z,12.20
2023-01-17T01:11:32.671Z,12.40
2023-01-17T01:14:19.065Z,12.30
2023-01-17T01:17:05.046Z,13.80
2023-01-17T01:19:50.267Z,12.20
2023-01-17T01:22:35.837Z,12.60
2023-01-17T01:25:21.297Z,12.20
2023-01-17T01:28:06.704Z,12.30
2023-01-17T01:30:52.017Z,12.00
2023-01-17T01:33:18.846Z,12.00
2023-01-17T01:35:50.569Z,12.40
2023-01-17T01:38:20.069Z,12.80
2023-01-17T01:40:52.655Z,12.68
2023-01-17T01:43:41.053Z,13.10
2023-01-17T01:46:09.991Z,12.65
2023-01-17T01:48:40.972Z,12.00
2023-01-17T01:51:11.985Z,12.50
2023-01-17T01:53:42.744Z,13.00
2023-01-17T01:56:13.607Z,14.18
2023-01-17T01:58:43.988Z,12.30
2023-01-17T02:01:10.989Z,11.90
2023-01-17T02:03:40.657Z,12.50
2023-01-17T02:06:20.701Z,12.48
2023-01-17T02:08:48.239Z,12.23
2023-01-17T02:11:15.495Z,12.02
2023-01-17T02:13:43.494Z,12.90
2023-01-17T02:16:18.911Z,12.70
2023-01-17T02:19:30.923Z,13.63
2023-01-17T02:22:06.787Z,12.70
2023-01-17T02:24:48.714Z,12.43
2023-01-17T02:27:31.841Z,12.70
2023-01-17T02:30:28.117Z,12.32
2023-01-17T02:33:04.029Z,12.50
2023-01-17T02:35:47.430Z,12.07
2023-01-17T02:38:31.256Z,12.00
2023-01-17T02:41:05.615Z,12.88
2023-01-17T02:43:33.932Z,12.75
2023-01-17T02:46:01.079Z,13.05
2023-01-17T02:48:31.594Z,12.43
2023-01-17T02:51:28.491Z,12.40
2023-01-17T02:54:12.066Z,12.45
2023-01-17T02:56:48.817Z,12.98
2023-01-17T03:00:01.904Z,13.10
2023-01-17T03:02:44.440Z,12.60
2023-01-17T03:05:20.230Z,12.70
2023-01-17T03:07:48.418Z,13.75
2023-01-17T03:10:17.958Z,12.80
2023-01-17T03:12:45.927Z,12.52
2023-01-17T03:15:16.018Z,12.75
2023-01-17T03:17:47.097Z,13.40
2023-01-17T03:20:14.148Z,12.57
2023-01-17T03:22:41.150Z,12.30
2023-01-17T03:25:08.637Z,13.30
2023-01-17T03:27:35.590Z,13.13
2023-01-17T03:30:02.565Z,13.80
2023-01-17T03:32:29.864Z,12.50
2023-01-17T03:34:56.875Z,13.60
2023-01-17T03:37:23.738Z,12.50
2023-01-17T03:39:50.798Z,12.70
2023-01-17T03:42:17.683Z,12.57
2023-01-17T03:44:44.604Z,13.77
2023-01-17T03:47:12.335Z,12.50
2023-01-17T03:49:40.084Z,13.48
2023-01-17T03:52:07.728Z,13.45
2023-01-17T03:54:34.687Z,13.18
2023-01-17T03:57:01.561Z,13.43
2023-01-17T03:59:28.488Z,12.98
2023-01-17T04:01:55.415Z,12.40
2023-01-17T04:04:22.629Z,13.20
2023-01-17T04:06:49.574Z,13.10
2023-01-17T04:09:16.516Z,13.57
2023-01-17T04:11:43.423Z,13.70
2023-01-17T04:14:10.258Z,12.60
2023-01-17T04:16:38.340Z,12.98
2023-01-17T04:19:05.283Z,13.57
2023-01-17T04:21:32.239Z,13.52
2023-01-17T04:23:59.116Z,14.32
2023-01-17T04:26:26.061Z,15.10
2023-01-17T04:28:52.927Z,12.40
2023-01-17T04:31:19.913Z,13.27
2023-01-17T04:33:46.849Z,14.30
2023-01-17T04:36:13.808Z,12.47
2023-01-17T04:38:40.785Z,12.50
2023-01-17T04:41:07.753Z,13.27
2023-01-17T04:43:35.106Z,13.88
2023-01-17T04:46:02.371Z,13.27
2023-01-17T04:48:31.400Z,13.20
2023-01-17T04:51:02.754Z,13.00
2023-01-17T04:53:29.876Z,13.00
2023-01-17T04:55:56.926Z,12.82
2023-01-17T04:58:24.337Z,12.90
2023-01-17T05:00:51.842Z,13.23
2023-01-17T05:03:23.956Z,15.00
2023-01-17T05:05:50.974Z,14.20
2023-01-17T05:08:17.831Z,13.40
2023-01-17T05:10:47.019Z,12.90
2023-01-17T05:13:14.084Z,13.40
2023-01-17T05:15:41.364Z,14.15
2023-01-17T05:18:15.722Z,13.40
2023-01-17T05:20:43.030Z,12.80
2023-01-17T05:23:10.624Z,12.73
2023-01-17T05:25:37.887Z,12.90
2023-01-17T05:28:05.095Z,13.20
2023-01-17T05:30:33.043Z,13.40
2023-01-17T05:33:00.022Z,12.60
2023-01-17T05:35:29.723Z,13.20
2023-01-17T05:37:56.821Z,12.95
2023-01-17T05:40:29.259Z,13.10
2023-01-17T05:42:58.716Z,15.15
2023-01-17T05:45:28.140Z,13.93
2023-01-17T05:47:56.272Z,13.02
2023-01-17T05:50:28.813Z,12.70
2023-01-17T05:52:58.816Z,13.32
2023-01-17T05:55:27.122Z,16.40
2023-01-17T05:57:54.855Z,13.43
2023-01-17T06:00:22.538Z,12.95
2023-01-17T06:02:50.247Z,13.05
2023-01-17T06:05:17.343Z,14.73
2023-01-17T06:07:46.009Z,13.00
2023-01-17T06:10:14.575Z,14.20
2023-01-17T06:12:42.976Z,13.60
2023-01-17T06:15:11.022Z,13.40
2023-01-17T06:17:37.995Z,14.07
2023-01-17T06:20:06.746Z,15.13
2023-01-17T06:22:34.013Z,13.30
2023-01-17T06:25:01.040Z,13.00
2023-01-17T06:27:28.065Z,13.82
2023-01-17T06:29:55.253Z,13.32
2023-01-17T06:32:22.285Z,12.60
2023-01-17T06:34:49.210Z,14.10
2023-01-17T06:37:16.214Z,14.70
2023-01-17T06:39:43.134Z,13.90
2023-01-17T06:42:10.087Z,14.10
2023-01-17T06:44:37.126Z,13.50
2023-01-17T06:47:04.039Z,13.02
2023-01-17T06:49:30.958Z,12.88
2023-01-17T06:51:57.884Z,12.20
2023-01-17T06:54:24.835Z,13.10
2023-01-17T06:56:51.694Z,13.32
2023-01-17T06:59:18.676Z,13.43
2023-01-17T07:01:45.734Z,12.97
2023-01-17T07:04:12.669Z,12.95
2023-01-17T07:06:39.599Z,12.90
2023-01-17T07:09:06.613Z,13.50
2023-01-17T07:11:33.590Z,12.40
2023-01-17T07:14:00.557Z,12.70
2023-01-17T07:16:27.890Z,14.02
2023-01-17T07:18:57.015Z,14.23
2023-01-17T07:21:24.002Z,15.98
2023-01-17T07:23:50.925Z,12.60
2023-01-17T07:26:17.770Z,13.45
2023-01-17T07:28:44.929Z,13.90
2023-01-17T07:31:11.858Z,13.20
2023-01-17T07:33:38.978Z,12.80
2023-01-17T07:36:07.840Z,13.02
2023-01-17T07:38:35.245Z,13.18
2023-01-17T07:41:02.240Z,13.30
2023-01-17T07:43:29.390Z,13.40
2023-01-17T07:45:56.380Z,13.68
2023-01-17T07:48:24.630Z,13.32
2023-01-17T07:50:54.244Z,13.00
2023-01-17T07:53:33.460Z,13.60
2023-01-17T07:56:02.801Z,13.20
2023-01-17T07:58:29.668Z,13.90
2023-01-17T08:01:02.980Z,13.73
2023-01-17T08:03:35.853Z,12.80
2023-01-17T08:06:03.096Z,12.50
2023-01-17T08:08:29.998Z,12.50
2023-01-17T08:10:57.972Z,12.90
2023-01-17T08:13:24.881Z,12.85
2023-01-17T08:15:52.113Z,12.93
2023-01-17T08:18:19.079Z,12.70
2023-01-17T08:20:46.418Z,12.80
2023-01-17T08:23:13.454Z,12.57
2023-01-17T08:25:40.546Z,13.85
2023-01-17T08:28:07.501Z,12.85
2023-01-17T08:30:35.357Z,13.05
2023-01-17T08:33:02.337Z,12.95
2023-01-17T08:35:29.611Z,13.40
2023-01-17T08:37:57.636Z,13.10
2023-01-17T08:40:24.907Z,12.20
2023-01-17T08:42:59.444Z,12.48
2023-01-17T08:45:27.617Z,13.60
2023-01-17T08:47:54.908Z,13.20
2023-01-17T08:50:21.966Z,12.82
2023-01-17T08:52:49.996Z,12.70
2023-01-17T08:55:17.184Z,12.90
2023-01-17T08:57:44.197Z,13.00
2023-01-17T09:00:11.663Z,12.20
2023-01-17T09:02:38.555Z,12.15
2023-01-17T09:05:06.230Z,13.10
2023-01-17T09:07:33.159Z,13.80
2023-01-17T09:09:59.997Z,13.27
2023-01-17T09:12:27.027Z,12.82
2023-01-17T09:14:53.937Z,12.83
2023-01-17T09:17:20.990Z,13.18
2023-01-17T09:19:48.817Z,12.95
2023-01-17T09:22:16.109Z,12.73
2023-01-17T09:24:43.030Z,12.70
2023-01-17T09:27:11.649Z,13.20
2023-01-17T09:29:38.581Z,12.80
2023-01-17T09:32:05.781Z,13.50
2023-01-17T09:34:32.619Z,12.27
2023-01-17T09:36:59.555Z,12.70
2023-01-17T09:39:26.961Z,13.52
2023-01-17T09:42:03.260Z,14.65
2023-01-17T09:44:47.538Z,18.83
2023-01-17T09:47:30.199Z,15.07
2023-01-17T09:50:27.685Z,12.70
2023-01-17T09:53:01.291Z,12.60
2023-01-17T09:55:34.936Z,13.43
2023-01-17T09:58:35.994Z,13.40
2023-01-17T10:01:22.655Z,14.40
2023-01-17T10:04:10.572Z,14.30
2023-01-17T10:06:43.627Z,13.40
2023-01-17T10:09:38.803Z,14.23
2023-01-17T10:12:26.876Z,13.80
2023-01-17T10:15:13.358Z,14.10
2023-01-17T10:17:55.550Z,14.00
2023-01-17T10:20:54.966Z,14.70
2023-01-17T10:23:42.207Z,13.47
2023-01-17T10:26:20.652Z,14.27
2023-01-17T10:28:51.292Z,14.23
2023-01-17T10:31:31.917Z,13.70
2023-01-17T10:34:09.296Z,15.00
2023-01-17T10:36:44.663Z,14.30
2023-01-17T10:39:26.156Z,14.60
2023-01-17T10:42:18.028Z,14.80
2023-01-17T10:45:16.578Z,14.52
2023-01-17T10:47:51.717Z,13.82
2023-01-17T10:50:20.935Z,17.65
2023-01-17T10:53:11.055Z,14.00
2023-01-17T10:55:53.397Z,14.30
2023-01-17T10:58:20.434Z,14.60
2023-01-17T11:01:02.699Z,14.05
2023-01-17T11:03:29.834Z,14.25
2023-01-17T11:06:19.970Z,14.50
2023-01-17T11:08:54.318Z,14.60
2023-01-17T11:11:25.320Z,15.00
2023-01-17T11:13:55.044Z,13.68
2023-01-17T11:16:26.699Z,13.77
2023-01-17T11:19:13.079Z,13.85
2023-01-17T11:21:49.351Z,15.80
2023-01-17T11:24:24.518Z,13.93
2023-01-17T11:26:51.413Z,14.32
2023-01-17T11:29:30.386Z,15.10
2023-01-17T11:31:57.877Z,13.80
2023-01-17T11:34:26.828Z,13.77
2023-01-17T11:37:19.536Z,14.27
2023-01-17T11:39:50.289Z,13.90
2023-01-17T11:42:37.641Z,14.40
2023-01-17T11:45:24.820Z,14.30
2023-01-17T11:48:16.126Z,14.07
2023-01-17T11:50:46.814Z,14.02
2023-01-17T11:53:24.755Z,13.43
2023-01-17T11:56:12.002Z,14.70
2023-01-17T11:58:41.558Z,14.50
2023-01-17T12:01:30.002Z,15.10
2023-01-17T12:04:24.051Z,13.85
2023-01-17T12:07:15.141Z,14.20
2023-01-17T12:10:17.723Z,13.63
2023-01-17T12:13:24.621Z,15.70
2023-01-17T12:16:25.414Z,13.02
2023-01-17T12:19:12.735Z,14.60
2023-01-17T12:22:01.471Z,15.13
2023-01-17T12:25:06.326Z,15.90
2023-01-17T12:27:51.692Z,14.85
2023-01-17T12:30:21.410Z,14.88
2023-01-17T12:33:00.136Z,15.20
2023-01-17T12:35:45.252Z,14.00
2023-01-17T12:38:32.035Z,14.02
2023-01-17T12:41:27.181Z,14.47
2023-01-17T12:44:00.652Z,14.43
2023-01-17T12:46:38.715Z,15.43
2023-01-17T12:49:55.509Z,14.60
2023-01-17T12:52:54.110Z,14.40
2023-01-17T12:55:47.729Z,14.85
2023-01-17T12:58:21.294Z,14.80
2023-01-17T13:00:54.447Z,14.00
2023-01-17T13:03:35.067Z,14.30
2023-01-17T13:06:03.539Z,14.90
2023-01-17T13:08:43.789Z,14.75
2023-01-17T13:11:41.094Z,14.45
2023-01-17T13:14:11.229Z,14.20
2023-01-17T13:17:02.492Z,15.40
2023-01-17T13:19:44.112Z,14.15
2023-01-17T13:22:17.547Z,14.43
2023-01-17T13:24:52.241Z,15.23
2023-01-17T13:27:30.647Z,14.35
2023-01-17T13:30:15.402Z,15.13
2023-01-17T13:33:10.502Z,14.00
2023-01-17T13:35:51.537Z,14.02
2023-01-17T13:38:54.815Z,14.82
2023-01-17T13:41:54.791Z,14.40
2023-01-17T13:44:27.320Z,16.23
2023-01-17T13:46:54.111Z,16.27
2023-01-17T13:49:35.995Z,14.88
2023-01-17T13:52:07.639Z,17.08
2023-01-17T13:54:42.230Z,16.20
2023-01-17T13:57:29.830Z,14.52
2023-01-17T13:59:58.809Z,15.32
2023-01-17T14:02:39.325Z,14.20
2023-01-17T14:05:16.201Z,14.00
2023-01-17T14:07:54.041Z,16.20
2023-01-17T14:10:40.148Z,15.20
2023-01-17T14:13:28.667Z,15.40
2023-01-17T14:15:55.598Z,14.23
2023-01-17T14:18:42.656Z,14.88
2023-01-17T14:21:35.490Z,14.83
2023-01-17T14:24:05.252Z,13.30
2023-01-17T14:26:58.922Z,12.60
2023-01-17T14:29:54.681Z,13.30
2023-01-17T14:32:25.941Z,12.60
2023-01-17T14:34:53.649Z,13.18
2023-01-17T14:37:47.060Z,13.20
2023-01-17T14:40:30.609Z,13.17
2023-01-17T14:43:03.214Z,14.00
2023-01-17T14:45:32.631Z,13.40
2023-01-17T14:48:02.264Z,12.60
2023-01-17T14:50:37.434Z,14.27
2023-01-17T14:53:13.841Z,13.10
2023-01-17T14:56:03.201Z,12.75
2023-01-17T14:58:36.378Z,13.63
2023-01-17T15:01:11.146Z,12.60
2023-01-17T15:03:50.504Z,12.70
2023-01-17T15:06:41.322Z,12.70
2023-01-17T15:09:12.458Z,12.88
2023-01-17T15:11:40.680Z,13.88
2023-01-17T15:14:08.142Z,13.70
2023-01-17T15:16:38.051Z,13.27
2023-01-17T15:19:15.314Z,13.70
2023-01-17T15:21:44.298Z,13.20
2023-01-17T15:24:21.808Z,13.25
2023-01-17T15:26:49.202Z,13.80
2023-01-17T15:29:33.698Z,13.65
2023-01-17T15:32:05.722Z,14.80
2023-01-17T15:34:35.657Z,13.50
2023-01-17T15:37:22.727Z,13.30
2023-01-17T15:39:49.785Z,12.80
2023-01-17T15:42:43.186Z,13.60
2023-01-17T15:45:33.606Z,13.55
2023-01-17T15:48:45.566Z,13.30
2023-01-17T15:51:13.354Z,14.07
2023-01-17T15:53:42.923Z,13.40
2023-01-17T15:56:22.596Z,13.30
2023-01-17T15:58:50.174Z,13.32
2023-01-17T16:01:23.886Z,13.40
2023-01-17T16:03:55.284Z,13.00
2023-01-17T16:06:45.382Z,13.63
2023-01-17T16:09:22.767Z,13.13
2023-01-17T16:11:49.690Z,13.45
2023-01-17T16:14:17.632Z,13.20
2023-01-17T16:16:54.186Z,12.63
2023-01-17T16:19:21.486Z,13.43
2023-01-17T16:21:48.766Z,13.02
2023-01-17T16:24:16.700Z,12.90
2023-01-17T16:26:43.681Z,13.07
2023-01-17T16:29:10.527Z,13.13
2023-01-17T16:31:37.776Z,13.20
2023-01-17T16:34:11.983Z,13.25
2023-01-17T16:36:39.352Z,12.93
2023-01-17T16:39:06.724Z,13.30
2023-01-17T16:41:33.976Z,13.67
2023-01-17T16:44:03.425Z,13.50
2023-01-17T16:46:30.419Z,13.30
2023-01-17T16:49:00.107Z,13.35
2023-01-17T16:51:27.005Z,12.95
2023-01-17T16:53:53.956Z,13.30
2023-01-17T16:56:20.865Z,13.73
2023-01-17T16:58:47.803Z,14.45
2023-01-17T17:01:17.241Z,14.43
2023-01-17T17:03:44.639Z,15.10
2023-01-17T17:06:12.405Z,15.25
2023-01-17T17:08:39.833Z,15.40
2023-01-17T17:11:16.661Z,14.85
2023-01-17T17:13:48.764Z,16.10
2023-01-17T17:16:22.144Z,17.42
2023-01-17T17:19:00.698Z,15.50
2023-01-17T17:21:28.626Z,16.00
2023-01-17T17:23:58.079Z,15.05
2023-01-17T17:26:31.624Z,15.30
2023-01-17T17:28:58.575Z,15.18
2023-01-17T17:31:25.800Z,14.40
2023-01-17T17:33:53.273Z,15.25
2023-01-17T17:36:20.088Z,15.82
2023-01-17T17:38:53.203Z,14.95
2023-01-17T17:41:22.378Z,15.80
2023-01-17T17:43:49.545Z,14.63
2023-01-17T17:46:16.507Z,15.57
2023-01-17T17:48:43.328Z,15.70
2023-01-17T17:51:28.650Z,17.17
2023-01-17T17:54:00.472Z,14.98
2023-01-17T17:56:28.722Z,13.93
2023-01-17T17:58:56.027Z,15.13
2023-01-17T18:01:23.474Z,16.25
2023-01-17T18:03:55.294Z,15.82
2023-01-17T18:06:22.920Z,17.15
2023-01-17T18:08:52.027Z,17.07
2023-01-17T18:11:22.603Z,16.80
2023-01-17T18:13:51.359Z,16.90
2023-01-17T18:16:41.631Z,16.85
2023-01-17T18:19:16.619Z,18.55
2023-01-17T18:21:44.233Z,18.95
2023-01-17T18:24:13.795Z,24.45
2023-01-17T18:26:42.096Z,21.20
2023-01-17T18:29:12.446Z,20.27
2023-01-17T18:31:39.422Z,18.40
2023-01-17T18:34:10.437Z,18.75
2023-01-17T18:36:38.146Z,17.00
2023-01-17T18:39:20.756Z,18.10
2023-01-17T18:41:49.381Z,18.20
2023-01-17T18:44:21.802Z,17.10
2023-01-17T18:46:50.298Z,17.48
2023-01-17T18:49:19.229Z,17.00
2023-01-17T18:51:50.461Z,17.60
2023-01-17T18:54:18.935Z,16.98
2023-01-17T18:56:45.893Z,16.70
2023-01-17T18:59:13.926Z,16.92
2023-01-17T19:01:44.643Z,17.70
2023-01-17T19:04:13.218Z,17.55
2023-01-17T19:06:45.247Z,17.05
2023-01-17T19:09:14.146Z,18.33
2023-01-17T19:11:43.076Z,17.90
2023-01-17T19:14:11.665Z,17.67
2023-01-17T19:16:41.222Z,17.77
2023-01-17T19:19:13.948Z,17.08
2023-01-17T19:21:41.146Z,19.13
2023-01-17T19:24:09.598Z,18.97
2023-01-17T19:26:36.507Z,18.13
2023-01-17T19:29:04.905Z,17.50
2023-01-17T19:31:32.816Z,18.30
2023-01-17T19:34:00.389Z,18.67
2023-01-17T19:36:31.202Z,20.35
2023-01-17T19:39:04.864Z,18.48
2023-01-17T19:41:34.146Z,18.53
2023-01-17T19:44:07.088Z,19.10
2023-01-17T19:46:35.252Z,20.30
2023-01-17T19:49:03.181Z,19.55
2023-01-17T19:51:30.294Z,18.63
2023-01-17T19:53:59.876Z,19.70
2023-01-17T19:56:27.713Z,18.90
2023-01-17T19:58:54.715Z,20.27
2023-01-17T20:01:28.348Z,19.50
2023-01-17T20:03:57.930Z,21.73
2023-01-17T20:06:28.835Z,20.98
2023-01-17T20:08:56.114Z,21.90
2023-01-17T20:11:25.271Z,21.45
2023-01-17T20:13:54.924Z,21.42
2023-01-17T20:16:22.990Z,22.30
2023-01-17T20:18:50.323Z,21.70
2023-01-17T20:21:25.188Z,22.92
2023-01-17T20:23:53.505Z,23.20
2023-01-17T20:26:23.191Z,23.45
2023-01-17T20:28:51.867Z,22.70
2023-01-17T20:31:21.922Z,26.88
2023-01-17T20:33:50.632Z,24.13
2023-01-17T20:36:19.795Z,22.63
2023-01-17T20:38:48.654Z,22.95
2023-01-17T20:41:29.103Z,22.60
2023-01-17T20:43:58.329Z,23.02
2023-01-17T20:46:27.856Z,22.20
2023-01-17T20:48:57.729Z,20.60
2023-01-17T20:51:26.738Z,20.60
2023-01-17T20:53:56.229Z,19.67
2023-01-17T20:56:23.711Z,19.75
2023-01-17T20:58:57.947Z,19.90
2023-01-17T21:01:24.954Z,19.45
2023-01-17T21:03:53.950Z,20.27
2023-01-17T21:06:23.524Z,20.95
2023-01-17T21:08:51.161Z,19.52
2023-01-17T21:11:21.558Z,20.42
2023-01-17T21:13:48.824Z,19.30
2023-01-17T21:16:20.275Z,18.30
2023-01-17T21:18:48.065Z,20.98
2023-01-17T21:21:17.868Z,18.58
2023-01-17T21:23:45.274Z,18.05
2023-01-17T21:26:14.567Z,18.83
2023-01-17T21:28:43.657Z,17.85
2023-01-17T21:31:25.286Z,17.57
2023-01-17T21:33:55.314Z,17.70
2023-01-17T21:36:25.141Z,17.67
2023-01-17T21:38:56.780Z,15.80
2023-01-17T21:41:28.396Z,16.10
2023-01-17T21:43:57.645Z,16.30
2023-01-17T21:46:25.583Z,16.67
2023-01-17T21:48:52.591Z,16.52
2023-01-17T21:51:21.648Z,16.00
2023-01-17T21:53:48.699Z,15.68
2023-01-17T21:56:34.238Z,15.60
2023-01-17T21:59:01.270Z,15.60
2023-01-17T22:01:32.037Z,15.20
2023-01-17T22:04:03.573Z,13.73
2023-01-17T22:06:34.293Z,13.27
2023-01-17T22:09:01.346Z,13.20
2023-01-17T22:11:30.319Z,12.68
2023-01-17T22:13:58.949Z,14.90
2023-01-17T22:16:26.799Z,14.05
2023-01-17T22:18:53.980Z,14.20
2023-01-17T22:21:23.105Z,14.63
2023-01-17T22:23:58.558Z,14.10
2023-01-17T22:26:28.204Z,12.93
2023-01-17T22:28:55.654Z,14.60
2023-01-17T22:31:26.394Z,12.70
2023-01-17T22:33:58.937Z,13.38
2023-01-17T22:36:26.237Z,13.40
2023-01-17T22:38:53.256Z,12.75
2023-01-17T22:41:23.241Z,13.25
2023-01-17T22:43:52.684Z,14.00
2023-01-17T22:46:22.115Z,13.27
2023-01-17T22:48:49.351Z,13.10
2023-01-17T22:51:18.389Z,12.70
2023-01-17T22:53:47.885Z,13.37
2023-01-17T22:56:20.085Z,13.15
2023-01-17T22:58:49.035Z,13.32
2023-01-17T23:01:17.490Z,13.25
2023-01-17T23:03:45.844Z,12.60
2023-01-17T23:06:25.581Z,12.70
2023-01-17T23:08:55.571Z,12.55
2023-01-17T23:11:43.851Z,12.70
2023-01-17T23:14:17.926Z,12.50
2023-01-17T23:17:15.282Z,12.20
2023-01-17T23:19:43.421Z,12.30
2023-01-17T23:22:15.938Z,13.35
2023-01-17T23:24:45.675Z,12.40
2023-01-17T23:27:37.317Z,12.90
2023-01-17T23:30:28.693Z,13.10
2023-01-17T23:33:00.418Z,13.30
2023-01-17T23:35:30.230Z,12.50
2023-01-17T23:38:15.773Z,12.30
2023-01-17T23:40:43.369Z,12.30
2023-01-17T23:43:23.226Z,13.20
2023-01-17T23:45:52.218Z,12.70
2023-01-17T23:48:20.183Z,12.70
2023-01-17T23:50:48.193Z,12.88
2023-01-17T23:53:23.499Z,12.77
2023-01-17T23:55:56.031Z,12.55
2023-01-17T23:58:25.351Z,12.90
